Time;durP1;ratioP1;P1;durP2;ratioP2;P2;SDS_P1;SDS_P2;PMS_P1;PMS_P2;Temp;Humidity;BMP_temperature;BMP_pressure;BME280_temperature;BME280_humidity;BME280_pressure;Samples;Min_cycle;Max_cycle;Signal;HPM_P1;HPM_P2
2022/10/30 00:00:33;;;;;;;24.08;14.30;;;14.00;99.90;;;;;;4923831;29;20102;-62
2022/10/30 00:02:59;;;;;;;23.10;14.35;;;14.00;99.90;;;;;;4924898;29;20051;-61
2022/10/30 00:05:25;;;;;;;24.17;15.43;;;14.10;99.90;;;;;;4924143;29;20044;-62
2022/10/30 00:07:53;;;;;;;26.95;15.02;;;14.10;99.90;;;;;;4923987;29;20635;-63
2022/10/30 00:10:19;;;;;;;24.88;14.77;;;14.00;99.90;;;;;;4924518;29;20082;-62
2022/10/30 00:12:44;;;;;;;22.55;14.88;;;14.10;99.90;;;;;;4923302;29;20060;-62
2022/10/30 00:15:11;;;;;;;22.50;14.68;;;13.80;99.90;;;;;;4924820;29;20076;-62
2022/10/30 00:17:36;;;;;;;22.13;14.27;;;14.00;99.90;;;;;;4923191;29;20048;-61
2022/10/30 00:20:02;;;;;;;28.55;14.45;;;13.80;99.90;;;;;;4924482;29;20075;-63
2022/10/30 00:22:28;;;;;;;25.02;15.27;;;13.80;99.90;;;;;;4923737;29;20052;-60
2022/10/30 00:24:53;;;;;;;25.75;15.48;;;13.90;99.90;;;;;;4906643;29;20071;-61
2022/10/30 00:27:19;;;;;;;24.13;13.95;;;13.80;99.90;;;;;;4924374;29;20059;-62
2022/10/30 00:29:45;;;;;;;25.13;14.90;;;14.00;99.90;;;;;;4922880;29;20048;-61
2022/10/30 00:32:12;;;;;;;28.92;14.68;;;14.00;99.90;;;;;;4907597;29;20039;-61
2022/10/30 00:34:37;;;;;;;24.70;15.40;;;13.70;99.90;;;;;;4923252;29;20043;-61
2022/10/30 00:37:03;;;;;;;24.45;14.95;;;14.00;99.90;;;;;;4924207;29;20040;-62
2022/10/30 00:39:29;;;;;;;25.48;15.10;;;14.00;99.90;;;;;;4923380;29;20076;-61
2022/10/30 00:41:54;;;;;;;25.33;14.00;;;13.90;99.90;;;;;;4923232;29;20044;-61
2022/10/30 00:44:46;;;;;;;23.52;14.15;;;13.80;99.90;;;;;;4923729;29;20058;-62
2022/10/30 00:47:31;;;;;;;21.03;13.27;;;13.80;99.90;;;;;;4922697;29;20115;-61
2022/10/30 00:50:24;;;;;;;24.75;13.07;;;13.70;99.90;;;;;;4924002;29;20055;-61
2022/10/30 00:53:10;;;;;;;23.65;14.07;;;13.90;99.90;;;;;;4923547;29;20052;-62
2022/10/30 00:55:44;;;;;;;24.63;16.02;;;13.80;99.90;;;;;;4922812;29;20043;-62
2022/10/30 00:58:14;;;;;;;26.27;13.50;;;13.90;99.90;;;;;;4924294;29;20044;-61
2022/10/30 01:00:43;;;;;;;24.30;13.80;;;14.00;99.90;;;;;;4922769;29;20040;-61
2022/10/30 01:03:09;;;;;;;23.17;13.40;;;13.70;99.90;;;;;;4923277;29;20048;-61
2022/10/30 01:05:35;;;;;;;23.40;14.75;;;14.00;99.90;;;;;;4906495;29;20112;-62
2022/10/30 01:08:01;;;;;;;28.13;14.55;;;13.70;99.90;;;;;;4922635;29;20056;-62
2022/10/30 01:10:27;;;;;;;23.50;13.75;;;13.70;99.90;;;;;;4906477;29;20298;-61
2022/10/30 01:12:55;;;;;;;23.15;13.52;;;13.70;99.90;;;;;;4921964;29;20056;-62
2022/10/30 01:15:31;;;;;;;23.92;13.65;;;13.90;99.90;;;;;;4924070;29;20056;-61
2022/10/30 01:18:31;;;;;;;19.85;13.18;;;13.80;99.90;;;;;;4922684;29;20052;-62
2022/10/30 01:20:59;;;;;;;28.08;14.18;;;13.90;99.90;;;;;;4922376;29;20579;-62
2022/10/30 01:23:35;;;;;;;22.45;15.00;;;13.90;99.90;;;;;;4923391;29;20055;-62
2022/10/30 01:26:21;;;;;;;22.20;13.85;;;13.90;99.90;;;;;;4904928;29;20548;-60
2022/10/30 01:29:12;;;;;;;26.60;15.05;;;13.70;99.90;;;;;;4922822;29;20048;-62
2022/10/30 01:32:19;;;;;;;22.92;14.40;;;13.80;99.90;;;;;;4922865;29;20602;-61
2022/10/30 01:35:00;;;;;;;24.40;13.32;;;13.80;99.90;;;;;;4905177;29;20075;-63
2022/10/30 01:37:46;;;;;;;21.55;12.95;;;13.80;99.90;;;;;;4923076;29;20055;-62
2022/10/30 01:40:18;;;;;;;24.50;13.55;;;13.80;99.90;;;;;;4922763;29;20048;-61
2022/10/30 01:42:53;;;;;;;22.85;12.93;;;13.60;99.90;;;;;;4921758;29;20051;-62
2022/10/30 01:45:51;;;;;;;23.88;13.77;;;13.60;99.90;;;;;;4923527;29;20863;-62
2022/10/30 01:48:20;;;;;;;23.20;13.68;;;13.80;99.90;;;;;;4870525;29;20052;-61
2022/10/30 01:51:19;;;;;;;21.00;12.73;;;13.60;99.90;;;;;;4922543;29;20128;-62
2022/10/30 01:54:20;;;;;;;25.42;12.50;;;13.70;99.90;;;;;;4923094;29;20056;-62
2022/10/30 01:57:10;;;;;;;21.55;13.43;;;13.60;99.90;;;;;;4884287;29;20055;-62
2022/10/30 01:59:40;;;;;;;22.73;12.88;;;13.40;99.90;;;;;;4922117;29;20075;-62
2022/10/30 02:02:06;;;;;;;22.05;13.55;;;13.50;99.90;;;;;;4922896;29;20500;-62
2022/10/30 02:04:32;;;;;;;22.98;13.20;;;13.80;99.90;;;;;;4921855;29;20051;-61
2022/10/30 02:06:58;;;;;;;23.60;12.55;;;13.70;99.90;;;;;;4923075;29;20084;-62
2022/10/30 02:09:24;;;;;;;21.17;12.93;;;13.50;99.90;;;;;;4905182;29;20075;-61
2022/10/30 02:11:51;;;;;;;26.42;14.20;;;13.70;99.90;;;;;;4905212;29;20512;-61
2022/10/30 02:14:25;;;;;;;26.38;13.27;;;13.40;99.90;;;;;;4922360;29;20048;-62
2022/10/30 02:16:53;;;;;;;23.77;12.98;;;13.70;99.90;;;;;;4921665;29;20048;-62
2022/10/30 02:19:19;;;;;;;22.02;12.88;;;13.50;99.90;;;;;;4923229;29;20100;-62
2022/10/30 02:21:45;;;;;;;23.10;13.88;;;13.70;99.90;;;;;;4904821;29;20084;-62
2022/10/30 02:24:10;;;;;;;23.80;14.30;;;13.70;99.90;;;;;;4905824;29;20060;-61
2022/10/30 02:26:37;;;;;;;23.00;13.73;;;13.50;99.90;;;;;;4921846;29;20108;-62
2022/10/30 02:29:02;;;;;;;21.90;13.77;;;13.70;99.90;;;;;;4922144;29;20080;-61
2022/10/30 02:31:28;;;;;;;24.27;13.45;;;13.60;99.90;;;;;;4922734;29;20044;-61
2022/10/30 02:33:53;;;;;;;21.77;13.05;;;13.50;99.90;;;;;;4921704;29;20058;-62
2022/10/30 02:36:19;;;;;;;24.73;14.52;;;13.70;99.90;;;;;;4922968;29;20048;-61
2022/10/30 02:38:45;;;;;;;22.00;14.38;;;13.60;99.90;;;;;;4921714;29;20058;-62
2022/10/30 02:41:11;;;;;;;22.60;14.27;;;13.60;99.90;;;;;;4924128;29;20052;-60
2022/10/30 02:43:37;;;;;;;25.40;15.20;;;13.60;99.90;;;;;;4925380;29;20059;-62
2022/10/30 02:46:02;;;;;;;25.35;14.43;;;13.40;99.90;;;;;;4925666;29;20048;-62
2022/10/30 02:48:29;;;;;;;28.58;16.75;;;13.60;99.90;;;;;;4925756;29;20059;-61
2022/10/30 02:50:59;;;;;;;23.70;14.57;;;13.30;99.90;;;;;;4914416;29;20126;-62
2022/10/30 02:53:24;;;;;;;28.02;17.27;;;13.50;99.90;;;;;;4906636;29;20052;-62
2022/10/30 02:55:50;;;;;;;27.73;15.80;;;13.50;99.90;;;;;;4905706;29;20085;-62
2022/10/30 02:58:16;;;;;;;26.23;14.82;;;13.50;99.90;;;;;;4913238;29;20047;-62
2022/10/30 03:00:41;;;;;;;26.63;14.85;;;13.50;99.90;;;;;;4907794;29;20048;-61
2022/10/30 03:03:07;;;;;;;29.83;16.13;;;13.30;99.90;;;;;;4925275;29;20056;-61
2022/10/30 03:05:32;;;;;;;24.52;15.38;;;13.30;99.90;;;;;;4925427;29;20127;-61
2022/10/30 03:07:58;;;;;;;28.85;15.52;;;13.50;99.90;;;;;;4908994;29;20052;-61
2022/10/30 03:10:24;;;;;;;25.52;16.00;;;13.50;99.90;;;;;;4906804;29;20049;-62
2022/10/30 03:12:49;;;;;;;25.65;14.63;;;13.20;99.90;;;;;;4905213;29;20057;-62
2022/10/30 03:15:15;;;;;;;24.77;14.40;;;13.40;99.90;;;;;;4906963;29;20052;-60
2022/10/30 03:17:41;;;;;;;27.23;14.90;;;13.40;99.90;;;;;;4905740;29;20042;-61
2022/10/30 03:20:07;;;;;;;24.85;15.07;;;13.20;99.90;;;;;;4906213;29;20060;-62
2022/10/30 03:22:33;;;;;;;25.90;15.05;;;13.20;99.90;;;;;;4889223;29;20052;-61
2022/10/30 03:24:58;;;;;;;25.63;15.88;;;13.50;99.90;;;;;;4920322;29;20616;-61
2022/10/30 03:27:24;;;;;;;23.85;14.60;;;13.40;99.90;;;;;;4925305;29;20076;-61
2022/10/30 03:29:50;;;;;;;24.75;14.68;;;13.10;99.90;;;;;;4924031;29;20208;-61
2022/10/30 03:32:15;;;;;;;28.70;15.98;;;13.20;99.90;;;;;;4925599;29;20048;-62
2022/10/30 03:34:41;;;;;;;24.50;15.02;;;13.30;99.90;;;;;;4924263;29;20112;-61
2022/10/30 03:37:06;;;;;;;26.25;16.17;;;13.40;99.90;;;;;;4908184;29;20036;-62
2022/10/30 03:39:32;;;;;;;26.88;14.77;;;13.30;99.90;;;;;;4924626;29;20096;-62
2022/10/30 03:41:58;;;;;;;26.05;15.18;;;13.40;99.90;;;;;;4924057;29;20059;-62
2022/10/30 03:44:23;;;;;;;23.35;14.80;;;13.10;99.90;;;;;;4925150;29;20121;-61
2022/10/30 03:46:49;;;;;;;30.05;17.73;;;13.20;99.90;;;;;;4923610;29;20036;-62
2022/10/30 03:49:15;;;;;;;25.30;14.45;;;13.10;99.90;;;;;;4925238;29;20052;-62
2022/10/30 03:51:40;;;;;;;25.35;15.68;;;13.40;99.90;;;;;;4923569;29;20092;-62
2022/10/30 03:54:06;;;;;;;29.00;15.35;;;13.10;99.90;;;;;;4907319;29;20080;-62
2022/10/30 03:56:31;;;;;;;23.17;14.90;;;13.30;99.90;;;;;;4924078;29;20040;-61
2022/10/30 03:58:57;;;;;;;25.48;14.02;;;13.30;99.90;;;;;;4924434;29;20067;-61
2022/10/30 04:01:23;;;;;;;22.25;13.15;;;13.10;99.90;;;;;;4924507;29;20048;-61
2022/10/30 04:03:48;;;;;;;21.58;14.20;;;13.30;99.90;;;;;;4923489;29;20052;-61
2022/10/30 04:06:14;;;;;;;22.58;14.23;;;13.30;99.90;;;;;;4924719;29;20048;-61
2022/10/30 04:08:40;;;;;;;23.65;14.00;;;13.10;99.90;;;;;;4923428;29;20048;-61
2022/10/30 04:11:08;;;;;;;25.88;14.38;;;13.20;99.90;;;;;;4924515;29;20044;-61
2022/10/30 04:13:33;;;;;;;21.10;14.23;;;13.10;99.90;;;;;;4906220;29;20063;-62
2022/10/30 04:15:59;;;;;;;24.77;14.05;;;13.00;99.90;;;;;;4924205;29;20056;-61
2022/10/30 04:18:25;;;;;;;21.65;13.73;;;13.10;99.90;;;;;;4924180;29;20051;-62
2022/10/30 04:20:51;;;;;;;22.35;14.98;;;13.00;99.90;;;;;;4923308;29;20052;-62
2022/10/30 04:23:19;;;;;;;22.17;14.23;;;13.30;99.90;;;;;;4924272;29;20048;-61
2022/10/30 04:25:44;;;;;;;22.10;14.65;;;13.30;99.90;;;;;;4923238;29;20059;-62
2022/10/30 04:28:10;;;;;;;24.92;14.70;;;12.90;99.90;;;;;;4924684;29;20056;-62
2022/10/30 04:30:37;;;;;;;26.83;16.27;;;12.90;99.90;;;;;;4923404;29;20048;-61
2022/10/30 04:33:10;;;;;;;27.58;15.55;;;13.20;99.90;;;;;;4923760;29;20103;-62
2022/10/30 04:35:36;;;;;;;26.77;14.70;;;13.20;99.90;;;;;;4923985;29;20382;-61
2022/10/30 04:38:04;;;;;;;21.88;15.20;;;13.20;99.90;;;;;;4923240;29;20044;-60
2022/10/30 04:40:33;;;;;;;25.67;15.82;;;12.90;99.90;;;;;;4924024;29;20055;-62
2022/10/30 04:42:59;;;;;;;24.38;14.25;;;13.20;99.90;;;;;;4922846;29;20056;-61
2022/10/30 04:45:25;;;;;;;26.92;14.85;;;12.90;99.90;;;;;;4924294;29;20079;-62
2022/10/30 04:47:51;;;;;;;27.23;15.50;;;12.90;99.90;;;;;;4923132;29;20198;-62
2022/10/30 04:50:18;;;;;;;26.00;14.68;;;12.90;99.90;;;;;;4923249;29;20048;-62
2022/10/30 04:52:43;;;;;;;25.40;15.35;;;13.00;99.90;;;;;;4923558;29;20051;-62
2022/10/30 04:55:10;;;;;;;25.35;14.95;;;12.90;99.90;;;;;;4922974;29;20044;-62
2022/10/30 04:57:36;;;;;;;25.02;14.88;;;12.80;99.90;;;;;;4920689;29;20077;-61
2022/10/30 05:00:07;;;;;;;26.80;16.00;;;13.00;99.90;;;;;;4903611;29;20072;-61
2022/10/30 05:02:35;;;;;;;25.55;15.40;;;12.90;99.90;;;;;;4904804;29;20056;-62
2022/10/30 05:05:02;;;;;;;24.27;14.70;;;13.10;99.90;;;;;;4903947;29;20086;-62
2022/10/30 05:07:28;;;;;;;22.17;14.05;;;12.90;99.90;;;;;;4904093;29;20071;-62
2022/10/30 05:09:53;;;;;;;30.88;16.35;;;12.80;99.90;;;;;;4887573;29;20040;-62
2022/10/30 05:12:19;;;;;;;29.88;15.77;;;12.80;99.90;;;;;;4903374;29;20244;-61
2022/10/30 05:14:45;;;;;;;24.48;16.33;;;13.10;99.90;;;;;;4904741;29;20072;-61
2022/10/30 05:17:10;;;;;;;35.90;16.98;;;12.90;99.90;;;;;;4902853;29;20048;-62
2022/10/30 05:19:36;;;;;;;26.08;15.68;;;12.70;99.90;;;;;;4904772;29;20040;-62
2022/10/30 05:22:02;;;;;;;32.22;16.13;;;12.80;99.90;;;;;;4903458;29;20052;-61
2022/10/30 05:24:27;;;;;;;26.85;16.08;;;12.80;99.90;;;;;;4904081;29;20127;-61
2022/10/30 05:26:53;;;;;;;24.60;14.68;;;12.90;99.90;;;;;;4904036;29;20048;-62
2022/10/30 05:29:18;;;;;;;25.88;16.70;;;12.70;99.90;;;;;;4903764;29;20051;-61
2022/10/30 05:31:44;;;;;;;24.25;15.60;;;13.00;99.90;;;;;;4904194;29;20093;-61
2022/10/30 05:34:10;;;;;;;33.55;16.83;;;12.90;99.90;;;;;;4903184;29;20124;-62
2022/10/30 05:36:35;;;;;;;29.35;17.10;;;12.90;99.90;;;;;;4887489;29;20063;-62
2022/10/30 05:39:01;;;;;;;28.02;16.25;;;12.90;99.90;;;;;;4903289;29;20049;-61
2022/10/30 05:41:28;;;;;;;27.10;15.63;;;12.90;99.90;;;;;;4903804;29;20052;-62
2022/10/30 05:43:53;;;;;;;27.13;14.98;;;12.80;99.90;;;;;;4903473;29;20880;-61
2022/10/30 05:46:19;;;;;;;29.60;16.02;;;12.90;99.90;;;;;;4903343;29;20161;-62
2022/10/30 05:48:45;;;;;;;29.98;17.77;;;12.70;99.90;;;;;;4887210;29;20056;-62
2022/10/30 05:51:10;;;;;;;25.58;16.23;;;12.70;99.90;;;;;;4902952;29;20044;-61
2022/10/30 05:53:36;;;;;;;27.52;16.30;;;12.70;99.90;;;;;;4904126;29;20113;-61
2022/10/30 05:56:02;;;;;;;24.83;16.88;;;12.80;99.90;;;;;;4886394;29;20040;-62
2022/10/30 05:58:27;;;;;;;24.77;16.02;;;12.50;99.90;;;;;;4913444;29;20488;-61
2022/10/30 06:00:53;;;;;;;27.38;15.90;;;12.80;99.90;;;;;;4922603;29;20040;-62
2022/10/30 06:03:19;;;;;;;28.73;16.17;;;12.40;99.90;;;;;;4922097;29;20139;-61
2022/10/30 06:05:46;;;;;;;26.73;16.92;;;12.70;99.90;;;;;;4922931;29;20044;-60
2022/10/30 06:08:15;;;;;;;28.23;17.20;;;12.50;99.90;;;;;;4921905;29;20067;-62
2022/10/30 06:10:41;;;;;;;25.67;17.48;;;12.60;99.90;;;;;;4922786;29;20092;-61
2022/10/30 06:13:06;;;;;;;24.98;17.40;;;12.50;99.90;;;;;;4918083;29;20052;-62
2022/10/30 06:15:32;;;;;;;28.73;16.58;;;12.70;99.90;;;;;;4920318;29;20056;-61
2022/10/30 06:17:59;;;;;;;33.47;17.80;;;12.40;99.90;;;;;;4922923;29;20132;-61
2022/10/30 06:20:29;;;;;;;29.55;17.77;;;12.60;99.90;;;;;;4922678;29;20048;-61
2022/10/30 06:23:00;;;;;;;30.00;17.92;;;12.30;99.90;;;;;;4906234;29;20056;-61
2022/10/30 06:25:27;;;;;;;28.77;16.63;;;12.40;99.90;;;;;;4922044;29;20123;-61
2022/10/30 06:27:53;;;;;;;25.98;16.63;;;12.40;99.90;;;;;;4921600;29;20468;-61
2022/10/30 06:30:20;;;;;;;27.90;16.30;;;12.50;99.90;;;;;;4921603;29;20047;-61
2022/10/30 06:32:46;;;;;;;26.30;17.15;;;12.40;99.90;;;;;;4905320;29;20981;-62
2022/10/30 06:35:12;;;;;;;27.42;16.83;;;12.50;99.90;;;;;;4920719;29;20691;-61
2022/10/30 06:37:40;;;;;;;29.75;16.33;;;12.40;99.90;;;;;;4921020;29;20052;-61
2022/10/30 06:40:08;;;;;;;26.17;16.50;;;12.30;99.90;;;;;;4904229;29;20052;-61
2022/10/30 06:42:44;;;;;;;30.92;17.50;;;12.30;99.90;;;;;;4908418;29;20056;-61
2022/10/30 06:45:11;;;;;;;27.95;16.92;;;12.60;99.90;;;;;;4923390;29;20055;-61
2022/10/30 06:47:37;;;;;;;26.75;16.33;;;12.60;99.90;;;;;;4906267;29;20048;-61
2022/10/30 06:50:04;;;;;;;25.65;16.70;;;12.60;99.90;;;;;;4911694;29;20072;-61
2022/10/30 06:52:30;;;;;;;28.02;16.30;;;12.30;99.90;;;;;;4922140;29;20040;-61
2022/10/30 06:54:55;;;;;;;25.40;17.23;;;12.30;99.90;;;;;;4904673;29;20043;-62
2022/10/30 06:57:21;;;;;;;31.75;16.15;;;12.60;99.90;;;;;;4920674;29;20052;-61
2022/10/30 06:59:47;;;;;;;25.80;15.77;;;12.50;99.90;;;;;;4902035;29;20056;-61
2022/10/30 07:02:12;;;;;;;25.65;17.20;;;12.60;99.90;;;;;;4904101;29;20052;-62
2022/10/30 07:04:38;;;;;;;26.42;16.25;;;12.70;99.90;;;;;;4902555;29;20063;-62
2022/10/30 07:07:04;;;;;;;27.20;16.27;;;12.40;99.90;;;;;;4886654;29;20059;-61
2022/10/30 07:09:29;;;;;;;25.70;16.00;;;12.50;99.90;;;;;;4902763;29;20049;-61
2022/10/30 07:11:55;;;;;;;26.80;15.25;;;12.80;99.90;;;;;;4885408;29;20459;-62
2022/10/30 07:14:21;;;;;;;29.48;17.25;;;12.50;99.90;;;;;;4903262;29;20063;-62
2022/10/30 07:16:46;;;;;;;25.17;16.13;;;12.50;99.90;;;;;;4902367;29;20044;-61
2022/10/30 07:19:12;;;;;;;27.00;15.43;;;12.60;99.90;;;;;;4903555;29;20131;-62
2022/10/30 07:21:38;;;;;;;27.30;15.93;;;12.50;99.90;;;;;;4902261;29;20056;-61
2022/10/30 07:24:04;;;;;;;24.88;15.20;;;12.70;99.90;;;;;;4903073;29;20810;-61
2022/10/30 07:26:30;;;;;;;25.63;15.27;;;12.70;99.90;;;;;;4885357;29;20541;-61
2022/10/30 07:28:55;;;;;;;27.70;15.82;;;12.70;99.90;;;;;;4901479;29;20056;-62
2022/10/30 07:31:21;;;;;;;27.10;15.60;;;12.90;99.90;;;;;;4903431;29;20047;-62
2022/10/30 07:33:47;;;;;;;24.23;15.30;;;12.70;99.90;;;;;;4902130;29;20052;-62
2022/10/30 07:36:13;;;;;;;24.80;16.20;;;13.00;99.90;;;;;;4903079;29;20076;-61
2022/10/30 07:38:39;;;;;;;31.23;16.75;;;13.00;99.90;;;;;;4900707;29;20063;-61
2022/10/30 07:41:05;;;;;;;24.75;15.95;;;12.80;99.90;;;;;;4908269;29;20471;-61
2022/10/30 07:43:30;;;;;;;23.88;14.65;;;13.10;99.90;;;;;;4920443;29;20051;-61
2022/10/30 07:45:56;;;;;;;24.83;15.02;;;13.10;99.90;;;;;;4921094;29;20039;-61
2022/10/30 07:48:22;;;;;;;24.58;15.60;;;12.90;99.90;;;;;;4921308;29;20056;-61
2022/10/30 07:50:47;;;;;;;30.95;16.52;;;12.90;99.90;;;;;;4920521;29;20052;-61
2022/10/30 07:53:13;;;;;;;31.35;16.15;;;13.20;99.90;;;;;;4921370;29;20044;-62
2022/10/30 07:55:44;;;;;;;27.80;16.17;;;13.20;99.90;;;;;;4919946;29;20814;-61
2022/10/30 07:58:09;;;;;;;26.27;16.17;;;13.10;99.90;;;;;;4913962;29;20045;-61
2022/10/30 08:00:35;;;;;;;27.73;15.02;;;13.40;99.90;;;;;;4901438;29;20063;-62
2022/10/30 08:03:00;;;;;;;24.48;16.17;;;13.30;99.90;;;;;;4902343;29;20056;-62
2022/10/30 08:05:26;;;;;;;26.05;15.48;;;13.40;99.90;;;;;;4902585;29;20162;-62
2022/10/30 08:07:52;;;;;;;23.52;16.05;;;13.30;99.90;;;;;;4884679;29;20117;-61
2022/10/30 08:10:17;;;;;;;26.90;15.27;;;13.60;99.90;;;;;;4902434;29;20045;-61
2022/10/30 08:12:44;;;;;;;24.02;14.73;;;13.70;99.90;;;;;;4900396;29;20116;-61
2022/10/30 08:15:10;;;;;;;26.80;15.82;;;13.80;99.90;;;;;;4883987;29;20068;-61
2022/10/30 08:17:47;;;;;;;26.23;16.08;;;13.60;99.90;;;;;;4882946;29;20059;-61
2022/10/30 08:20:15;;;;;;;26.90;15.65;;;13.80;99.90;;;;;;4883135;29;20685;-62
2022/10/30 08:22:47;;;;;;;25.65;15.55;;;13.90;99.90;;;;;;4882937;29;20068;-61
2022/10/30 08:25:14;;;;;;;25.10;15.10;;;13.70;99.90;;;;;;4881688;29;20056;-62
2022/10/30 08:27:58;;;;;;;32.40;15.43;;;13.70;99.90;;;;;;4883161;29;20107;-61
2022/10/30 08:30:26;;;;;;;28.77;15.23;;;13.80;99.90;;;;;;4881711;29;20754;-61
2022/10/30 08:32:57;;;;;;;26.25;15.65;;;14.00;99.90;;;;;;4882867;29;20203;-60
2022/10/30 08:35:22;;;;;;;24.90;14.73;;;13.90;99.90;;;;;;4880721;29;20045;-62
2022/10/30 08:37:48;;;;;;;28.27;16.35;;;14.10;99.90;;;;;;4881649;29;20109;-62
2022/10/30 08:40:14;;;;;;;26.55;14.52;;;14.10;99.90;;;;;;4882630;29;20057;-62
2022/10/30 08:42:39;;;;;;;24.42;15.48;;;14.00;99.90;;;;;;4881206;29;20052;-62
2022/10/30 08:45:06;;;;;;;25.38;15.32;;;14.10;99.90;;;;;;4883144;29;20049;-61
2022/10/30 08:47:32;;;;;;;25.50;15.43;;;14.20;99.90;;;;;;4880817;29;20767;-62
2022/10/30 08:49:57;;;;;;;27.73;15.98;;;14.50;99.90;;;;;;4882382;29;20052;-61
2022/10/30 08:52:23;;;;;;;28.25;14.32;;;14.60;99.90;;;;;;4866509;29;20049;-62
2022/10/30 08:54:49;;;;;;;24.90;15.63;;;14.60;99.90;;;;;;4899630;29;20100;-61
2022/10/30 08:57:14;;;;;;;22.42;15.50;;;14.80;99.90;;;;;;4899825;29;20041;-61
2022/10/30 08:59:40;;;;;;;25.13;15.70;;;14.50;99.90;;;;;;4894332;29;20825;-62
2022/10/30 09:02:08;;;;;;;25.63;15.38;;;14.80;99.90;;;;;;4887126;29;20045;-61
2022/10/30 09:04:33;;;;;;;25.45;15.73;;;14.60;99.90;;;;;;4881149;29;20620;-62
2022/10/30 09:07:02;;;;;;;28.23;16.42;;;15.00;99.90;;;;;;4882536;29;20104;-61
2022/10/30 09:09:27;;;;;;;27.60;16.13;;;15.00;99.90;;;;;;4882522;29;20150;-61
2022/10/30 09:11:53;;;;;;;23.52;14.98;;;15.00;99.90;;;;;;4881623;29;20116;-61
2022/10/30 09:14:19;;;;;;;26.98;15.77;;;15.10;99.90;;;;;;4894753;29;20052;-62
2022/10/30 09:16:44;;;;;;;27.90;16.20;;;14.90;99.90;;;;;;4882947;29;20084;-61
2022/10/30 09:19:10;;;;;;;25.05;15.45;;;15.00;99.90;;;;;;4901441;29;20072;-62
2022/10/30 09:21:36;;;;;;;25.10;15.32;;;15.00;99.90;;;;;;4900003;29;20112;-61
2022/10/30 09:24:01;;;;;;;26.58;16.00;;;15.30;99.90;;;;;;4900930;29;20088;-61
2022/10/30 09:26:28;;;;;;;27.58;15.98;;;15.20;99.90;;;;;;4883840;29;20040;-62
2022/10/30 09:28:54;;;;;;;25.00;15.35;;;15.20;99.90;;;;;;4900522;29;20037;-62
2022/10/30 09:31:19;;;;;;;27.65;15.68;;;15.20;99.90;;;;;;4900906;29;20056;-61
2022/10/30 09:33:45;;;;;;;26.00;16.27;;;15.50;99.90;;;;;;4883278;29;20045;-61
2022/10/30 09:36:10;;;;;;;24.17;15.88;;;15.70;99.90;;;;;;4901102;29;20055;-61
2022/10/30 09:38:36;;;;;;;24.95;15.93;;;15.80;99.90;;;;;;4899869;29;20048;-62
2022/10/30 09:41:23;;;;;;;25.98;16.95;;;15.70;99.90;;;;;;4900649;29;20100;-62
2022/10/30 09:44:16;;;;;;;26.80;16.17;;;15.80;99.90;;;;;;4899264;29;20085;-61
2022/10/30 09:47:16;;;;;;;28.73;15.57;;;15.90;99.90;;;;;;4899590;29;20124;-61
2022/10/30 09:50:00;;;;;;;23.75;15.10;;;16.00;99.90;;;;;;4900513;29;20087;-62
2022/10/30 09:52:28;;;;;;;24.50;14.52;;;15.80;99.90;;;;;;4899944;29;20057;-62
2022/10/30 09:55:03;;;;;;;27.85;14.93;;;15.70;99.90;;;;;;4899401;29;20084;-62
2022/10/30 09:57:33;;;;;;;25.42;15.13;;;15.80;99.90;;;;;;4903426;29;20051;-62
2022/10/30 10:00:11;;;;;;;28.27;16.13;;;15.90;99.90;;;;;;4900841;29;20044;-61
2022/10/30 10:02:48;;;;;;;22.92;15.13;;;16.10;99.90;;;;;;4902397;29;20048;-60
2022/10/30 10:05:23;;;;;;;29.98;16.67;;;15.90;99.90;;;;;;4919001;29;20052;-61
2022/10/30 10:07:56;;;;;;;33.13;17.83;;;16.10;99.90;;;;;;4918475;29;20072;-62
2022/10/30 10:10:38;;;;;;;26.88;16.88;;;15.80;99.90;;;;;;4919881;29;20085;-62
2022/10/30 10:13:06;;;;;;;26.17;15.68;;;16.20;99.90;;;;;;4917606;29;20116;-61
2022/10/30 10:15:43;;;;;;;26.02;16.00;;;16.10;99.90;;;;;;4919766;29;20052;-61
2022/10/30 10:18:31;;;;;;;27.75;16.23;;;16.40;99.90;;;;;;4919020;29;20048;-62
2022/10/30 10:21:00;;;;;;;27.88;17.08;;;16.40;99.90;;;;;;4917682;29;20086;-62
2022/10/30 10:23:47;;;;;;;29.95;16.48;;;16.50;99.90;;;;;;4919416;29;20083;-62
2022/10/30 10:26:37;;;;;;;27.98;14.93;;;16.30;99.90;;;;;;4906767;29;20536;-61
2022/10/30 10:29:27;;;;;;;25.00;15.85;;;16.30;99.90;;;;;;4909275;29;20045;-62
2022/10/30 10:32:01;;;;;;;24.17;14.90;;;16.50;99.90;;;;;;4915145;29;20048;-62
2022/10/30 10:34:34;;;;;;;24.20;14.85;;;16.90;99.90;;;;;;4918517;29;20052;-62
2022/10/30 10:37:15;;;;;;;24.02;15.63;;;16.70;99.90;;;;;;4886321;29;20054;-63
2022/10/30 10:39:56;;;;;;;26.48;14.98;;;16.80;99.90;;;;;;4919206;29;20056;-62
2022/10/30 10:42:42;;;;;;;25.17;14.25;;;17.10;99.90;;;;;;4917622;29;20056;-62
2022/10/30 10:45:14;;;;;;;25.15;14.93;;;17.20;99.90;;;;;;4912057;29;20052;-62
2022/10/30 10:48:19;;;;;;;26.40;15.00;;;17.30;99.90;;;;;;4907360;29;20068;-62
2022/10/30 10:50:57;;;;;;;23.90;15.45;;;17.20;99.90;;;;;;4916294;29;20054;-62
2022/10/30 10:53:28;;;;;;;27.27;16.00;;;17.20;99.90;;;;;;4919375;29;20079;-62
2022/10/30 10:55:58;;;;;;;24.75;14.52;;;17.30;99.90;;;;;;4918092;29;20084;-62
2022/10/30 10:58:33;;;;;;;25.13;14.65;;;17.60;99.90;;;;;;4909687;29;20123;-61
2022/10/30 11:00:59;;;;;;;22.88;13.75;;;17.40;99.90;;;;;;4899752;29;20095;-61
2022/10/30 11:03:33;;;;;;;28.55;12.68;;;17.50;99.90;;;;;;4902346;29;20525;-62
2022/10/30 11:06:28;;;;;;;24.35;13.63;;;17.40;99.90;;;;;;4903581;29;20508;-61
2022/10/30 11:09:26;;;;;;;22.33;12.77;;;17.50;99.90;;;;;;4913910;29;20086;-61
2022/10/30 11:11:54;;;;;;;23.67;13.50;;;17.50;99.90;;;;;;4923097;29;20048;-61
2022/10/30 11:14:24;;;;;;;23.83;13.52;;;17.40;99.90;;;;;;4923820;29;20048;-61
2022/10/30 11:16:54;;;;;;;23.70;14.77;;;17.30;99.90;;;;;;4922693;29;20393;-61
2022/10/30 11:19:19;;;;;;;21.73;13.15;;;17.40;99.90;;;;;;4915864;29;20398;-61
2022/10/30 11:21:50;;;;;;;22.40;12.77;;;17.50;99.90;;;;;;4913377;29;20059;-61
2022/10/30 11:24:31;;;;;;;24.40;12.25;;;17.70;99.90;;;;;;4889781;29;20049;-61
2022/10/30 11:27:14;;;;;;;26.08;12.73;;;17.70;99.90;;;;;;4906554;29;20056;-61
2022/10/30 11:29:49;;;;;;;19.55;11.75;;;17.80;99.90;;;;;;4905265;29;20104;-62
2022/10/30 11:32:22;;;;;;;21.10;13.35;;;18.00;99.90;;;;;;4915296;29;20039;-62
2022/10/30 11:35:17;;;;;;;20.45;13.02;;;18.00;99.90;;;;;;4898709;29;20061;-62
2022/10/30 11:37:45;;;;;;;23.10;12.82;;;17.80;99.90;;;;;;4922694;29;20048;-60
2022/10/30 11:40:11;;;;;;;21.90;12.35;;;18.00;99.90;;;;;;4908214;29;20646;-61
2022/10/30 11:42:47;;;;;;;21.08;12.55;;;18.20;99.90;;;;;;4923684;29;20117;-62
2022/10/30 11:45:18;;;;;;;21.42;12.20;;;18.20;99.90;;;;;;4925430;29;20580;-61
2022/10/30 11:47:45;;;;;;;;;;;18.10;99.90;;;;;;4924744;29;20497;-61
2022/10/30 11:50:31;;;;;;;23.95;11.85;;;18.30;99.90;;;;;;4924494;29;19926;-62
2022/10/30 11:53:00;;;;;;;25.42;11.27;;;18.10;99.90;;;;;;4924904;29;20470;-61
2022/10/30 11:55:36;;;;;;;21.02;11.52;;;18.30;99.90;;;;;;4923631;29;20037;-61
2022/10/30 11:58:04;;;;;;;18.25;11.80;;;18.30;99.90;;;;;;4918089;29;20045;-61
2022/10/30 12:00:33;;;;;;;22.30;11.55;;;18.30;99.90;;;;;;4905280;29;20052;-62
2022/10/30 12:03:00;;;;;;;22.05;12.60;;;18.30;99.90;;;;;;4905200;29;20108;-61
2022/10/30 12:05:37;;;;;;;23.58;11.68;;;18.20;99.90;;;;;;4893866;29;20075;-61
2022/10/30 12:08:16;;;;;;;20.42;12.18;;;18.30;99.90;;;;;;4912618;29;20105;-61
2022/10/30 12:10:51;;;;;;;20.50;10.43;;;18.30;99.90;;;;;;4909483;29;20068;-62
2022/10/30 12:13:19;;;;;;;22.02;11.38;;;18.40;99.90;;;;;;4903782;29;20128;-62
2022/10/30 12:16:02;;;;;;;20.55;10.73;;;18.40;99.90;;;;;;4906121;29;20540;-61
2022/10/30 12:18:28;;;;;;;20.10;11.77;;;18.20;99.90;;;;;;4914809;29;20119;-61
2022/10/30 12:20:56;;;;;;;18.83;11.88;;;18.10;99.90;;;;;;4910114;29;20052;-61
2022/10/30 12:23:24;;;;;;;19.23;11.80;;;18.20;99.90;;;;;;4908840;29;20078;-61
2022/10/30 12:26:10;;;;;;;19.10;10.55;;;18.10;99.90;;;;;;4908518;29;20052;-60
2022/10/30 12:28:37;;;;;;;19.63;10.45;;;18.30;99.90;;;;;;4913179;29;20044;-61
2022/10/30 12:31:15;;;;;;;21.00;11.27;;;18.30;99.90;;;;;;4913513;29;20040;-61
2022/10/30 12:33:49;;;;;;;18.30;10.52;;;18.20;99.90;;;;;;4923044;29;20079;-62
2022/10/30 12:36:28;;;;;;;18.92;9.88;;;18.20;99.90;;;;;;4907392;29;20063;-62
2022/10/30 12:38:57;;;;;;;18.52;10.65;;;18.30;99.90;;;;;;4923052;29;20052;-61
2022/10/30 12:41:27;;;;;;;18.67;10.43;;;18.20;99.90;;;;;;4906403;29;20176;-62